createdAt,value
2022-09-03T00:00:01.256Z,12.56
2022-09-03T00:02:35.259Z,12.41
2022-09-03T00:05:06.806Z,12.53
2022-09-03T00:07:42.460Z,12.52
2022-09-03T00:10:18.051Z,12.52
2022-09-03T00:12:47.461Z,12.49
2022-09-03T00:15:17.381Z,12.45
2022-09-03T00:17:50.267Z,12.41
2022-09-03T00:20:20.050Z,12.39
2022-09-03T00:22:49.928Z,12.28
2022-09-03T00:25:25.148Z,12.29
2022-09-03T00:27:58.513Z,12.33
2022-09-03T00:30:25.449Z,12.27
2022-09-03T00:32:58.075Z,12.26
2022-09-03T00:35:28.578Z,12.22
2022-09-03T00:37:55.642Z,12.19
2022-09-03T00:40:49.372Z,12.16
2022-09-03T00:43:27.613Z,12.18
2022-09-03T00:46:02.864Z,12.15
2022-09-03T00:48:33.597Z,12.13
2022-09-03T00:51:15.017Z,12.00
2022-09-03T00:53:49.263Z,12.13
2022-09-03T00:56:23.479Z,11.96
2022-09-03T00:59:03.852Z,12.08
2022-09-03T01:01:42.691Z,12.07
2022-09-03T01:04:27.050Z,12.07
2022-09-03T01:07:03.130Z,12.08
2022-09-03T01:09:44.463Z,12.12
2022-09-03T01:12:19.137Z,12.15
2022-09-03T01:14:59.068Z,12.09
2022-09-03T01:17:40.010Z,12.18
2022-09-03T01:20:34.559Z,12.20
2022-09-03T01:23:30.050Z,12.21
2022-09-03T01:26:08.505Z,12.21
2022-09-03T01:29:10.110Z,12.11
2022-09-03T01:31:43.226Z,12.22
2022-09-03T01:34:20.106Z,12.26
2022-09-03T01:36:59.434Z,12.26
2022-09-03T01:39:33.749Z,12.23
2022-09-03T01:42:08.518Z,12.21
2022-09-03T01:44:50.448Z,12.09
2022-09-03T01:47:32.556Z,12.08
2022-09-03T01:50:05.473Z,12.16
2022-09-03T01:52:43.714Z,12.15
2022-09-03T01:55:24.671Z,12.14
2022-09-03T01:57:56.661Z,12.10
2022-09-03T02:00:26.914Z,12.08
2022-09-03T02:02:54.018Z,12.06
2022-09-03T02:05:22.666Z,12.05
2022-09-03T02:07:53.068Z,12.00
2022-09-03T02:10:22.162Z,12.01
2022-09-03T02:12:52.232Z,11.93
2022-09-03T02:15:23.242Z,11.98
2022-09-03T02:17:54.876Z,11.96
2022-09-03T02:20:25.227Z,11.94
2022-09-03T02:22:53.401Z,11.93
2022-09-03T02:25:23.102Z,11.98
2022-09-03T02:27:51.320Z,11.94
2022-09-03T02:30:17.972Z,11.86
2022-09-03T02:32:44.629Z,11.92
2022-09-03T02:35:13.372Z,11.88
2022-09-03T02:37:40.144Z,11.88
2022-09-03T02:40:07.634Z,11.86
2022-09-03T02:42:34.483Z,11.87
2022-09-03T02:45:10.353Z,11.85
2022-09-03T02:47:40.673Z,11.82
2022-09-03T02:50:07.760Z,11.79
2022-09-03T02:52:35.633Z,11.81
2022-09-03T02:55:02.187Z,11.71
2022-09-03T02:57:28.721Z,11.79
2022-09-03T02:59:55.254Z,11.77
2022-09-03T03:02:22.070Z,11.74
2022-09-03T03:04:49.170Z,11.71
2022-09-03T03:07:15.711Z,11.73
2022-09-03T03:09:43.602Z,11.75
2022-09-03T03:12:10.124Z,11.78
2022-09-03T03:14:36.653Z,11.68
2022-09-03T03:17:03.563Z,11.74
2022-09-03T03:19:30.173Z,11.68
2022-09-03T03:21:56.696Z,11.71
2022-09-03T03:24:23.281Z,11.68
2022-09-03T03:26:51.194Z,11.67
2022-09-03T03:29:18.021Z,11.64
2022-09-03T03:31:44.629Z,11.50
2022-09-03T03:34:11.178Z,11.60
2022-09-03T03:36:37.863Z,11.51
2022-09-03T03:39:04.523Z,11.61
2022-09-03T03:41:32.701Z,11.65
2022-09-03T03:44:02.526Z,11.46
2022-09-03T03:46:31.759Z,11.58
2022-09-03T03:48:58.551Z,11.60
2022-09-03T03:51:25.170Z,11.58
2022-09-03T03:53:54.833Z,11.58
2022-09-03T03:56:21.929Z,11.50
2022-09-03T03:58:48.458Z,11.53
2022-09-03T04:01:18.038Z,11.52
2022-09-03T04:03:45.446Z,11.52
2022-09-03T04:06:14.032Z,11.51
2022-09-03T04:08:42.504Z,11.55
2022-09-03T04:11:12.616Z,11.54
2022-09-03T04:13:40.566Z,11.54
2022-09-03T04:16:09.398Z,11.55
2022-09-03T04:18:38.354Z,11.54
2022-09-03T04:21:06.519Z,11.60
2022-09-03T04:23:33.867Z,11.64
2022-09-03T04:26:00.983Z,11.68
2022-09-03T04:28:28.375Z,11.73
2022-09-03T04:30:55.273Z,11.73
2022-09-03T04:33:24.873Z,11.87
2022-09-03T04:35:52.741Z,11.91
2022-09-03T04:38:19.325Z,11.98
2022-09-03T04:40:52.048Z,12.00
2022-09-03T04:43:18.655Z,12.04
2022-09-03T04:45:45.221Z,12.09
2022-09-03T04:48:11.845Z,12.12
2022-09-03T04:50:38.596Z,12.21
2022-09-03T04:53:08.165Z,12.26
2022-09-03T04:55:36.054Z,12.27
2022-09-03T04:58:02.768Z,12.26
2022-09-03T05:00:29.347Z,12.29
2022-09-03T05:02:55.929Z,12.22
2022-09-03T05:05:22.494Z,12.31
2022-09-03T05:07:49.034Z,12.33
2022-09-03T05:10:17.155Z,12.41
2022-09-03T05:12:43.804Z,12.42
2022-09-03T05:15:10.754Z,12.56
2022-09-03T05:17:37.844Z,12.62
2022-09-03T05:20:05.772Z,12.60
2022-09-03T05:22:32.308Z,12.73
2022-09-03T05:24:58.828Z,12.82
2022-09-03T05:27:26.751Z,12.89
2022-09-03T05:29:53.274Z,12.97
2022-09-03T05:32:19.810Z,13.05
2022-09-03T05:34:46.432Z,13.11
2022-09-03T05:37:13.046Z,13.19
2022-09-03T05:39:39.858Z,13.14
2022-09-03T05:42:06.724Z,13.30
2022-09-03T05:44:34.608Z,13.39
2022-09-03T05:47:01.154Z,13.34
2022-09-03T05:49:27.882Z,13.47
2022-09-03T05:51:56.423Z,13.44
2022-09-03T05:54:24.765Z,13.72
2022-09-03T05:56:51.465Z,13.66
2022-09-03T05:59:18.227Z,13.92
2022-09-03T06:01:50.397Z,13.96
2022-09-03T06:04:18.979Z,14.09
2022-09-03T06:06:47.669Z,14.12
2022-09-03T06:09:16.171Z,14.36
2022-09-03T06:11:42.889Z,14.32
2022-09-03T06:14:12.103Z,14.61
2022-09-03T06:16:40.323Z,14.74
2022-09-03T06:19:09.907Z,14.86
2022-09-03T06:21:37.306Z,14.96
2022-09-03T06:24:04.184Z,15.08
2022-09-03T06:26:30.836Z,15.19
2022-09-03T06:28:57.959Z,15.30
2022-09-03T06:31:24.970Z,15.49
2022-09-03T06:33:51.933Z,15.60
2022-09-03T06:36:21.146Z,15.70
2022-09-03T06:38:48.213Z,15.81
2022-09-03T06:41:16.562Z,15.75
2022-09-03T06:43:43.156Z,16.01
2022-09-03T06:46:11.728Z,16.10
2022-09-03T06:48:39.535Z,16.19
2022-09-03T06:51:08.565Z,16.23
2022-09-03T06:53:38.444Z,16.35
2022-09-03T06:56:07.822Z,16.40
2022-09-03T06:58:35.987Z,16.49
2022-09-03T07:01:05.936Z,16.62
2022-09-03T07:03:32.971Z,16.78
2022-09-03T07:06:03.902Z,17.00
2022-09-03T07:08:30.706Z,16.70
2022-09-03T07:10:58.828Z,17.19
2022-09-03T07:13:25.410Z,17.22
2022-09-03T07:15:59.910Z,17.29
2022-09-03T07:18:26.616Z,17.49
2022-09-03T07:20:58.217Z,17.52
2022-09-03T07:23:24.951Z,17.46
2022-09-03T07:25:53.910Z,17.54
2022-09-03T07:28:22.078Z,17.65
2022-09-03T07:30:48.663Z,17.74
2022-09-03T07:33:15.253Z,17.67
2022-09-03T07:35:41.818Z,17.88
2022-09-03T07:38:08.457Z,17.93
2022-09-03T07:40:35.044Z,18.02
2022-09-03T07:43:01.719Z,18.11
2022-09-03T07:45:29.682Z,18.21
2022-09-03T07:47:56.351Z,18.22
2022-09-03T07:50:22.858Z,18.30
2022-09-03T07:52:49.773Z,18.41
2022-09-03T07:55:16.542Z,18.54
2022-09-03T07:57:43.141Z,18.67
2022-09-03T08:00:10.692Z,18.77
2022-09-03T08:02:43.002Z,18.82
2022-09-03T08:05:12.209Z,18.81
2022-09-03T08:07:41.935Z,18.89
2022-09-03T08:10:09.262Z,19.04
2022-09-03T08:12:35.808Z,19.06
2022-09-03T08:15:02.867Z,19.13
2022-09-03T08:17:29.390Z,19.16
2022-09-03T08:19:57.654Z,19.24
2022-09-03T08:22:27.326Z,19.32
2022-09-03T08:24:54.010Z,19.22
2022-09-03T08:27:20.767Z,19.20
2022-09-03T08:29:47.337Z,19.22
2022-09-03T08:32:14.309Z,19.20
2022-09-03T08:34:41.074Z,19.26
2022-09-03T08:37:09.011Z,19.24
2022-09-03T08:39:35.726Z,19.18
2022-09-03T08:42:36.066Z,19.24
2022-09-03T08:45:09.425Z,19.13
2022-09-03T08:47:44.067Z,19.29
2022-09-03T08:50:16.961Z,19.35
2022-09-03T08:52:47.694Z,19.42
2022-09-03T08:55:21.692Z,19.47
2022-09-03T08:57:52.880Z,19.44
2022-09-03T09:00:19.786Z,19.46
2022-09-03T09:02:59.810Z,19.51
2022-09-03T09:05:40.147Z,19.52
2022-09-03T09:08:17.671Z,19.57
2022-09-03T09:10:48.098Z,19.56
2022-09-03T09:13:24.118Z,19.68
2022-09-03T09:15:59.543Z,19.69
2022-09-03T09:18:39.582Z,19.58
2022-09-03T09:21:10.796Z,19.40
2022-09-03T09:23:43.235Z,19.64
2022-09-03T09:26:13.323Z,19.58
2022-09-03T09:28:39.912Z,19.71
2022-09-03T09:31:10.061Z,19.75
2022-09-03T09:33:37.385Z,19.85
2022-09-03T09:36:06.880Z,20.05
2022-09-03T09:38:35.678Z,19.76
2022-09-03T09:41:15.498Z,20.08
2022-09-03T09:43:43.535Z,20.26
2022-09-03T09:46:14.293Z,20.20
2022-09-03T09:48:49.015Z,20.41
2022-09-03T09:51:23.433Z,20.48
2022-09-03T09:54:01.984Z,20.46
2022-09-03T09:56:30.417Z,20.19
2022-09-03T09:59:05.749Z,20.66
2022-09-03T10:01:32.764Z,20.33
2022-09-03T10:04:11.532Z,20.94
2022-09-03T10:06:45.345Z,20.96
2022-09-03T10:09:15.799Z,20.89
2022-09-03T10:11:48.295Z,20.93
2022-09-03T10:14:23.001Z,21.22
2022-09-03T10:16:56.258Z,21.51
2022-09-03T10:19:43.780Z,21.30
2022-09-03T10:22:17.311Z,21.64
2022-09-03T10:24:55.334Z,21.84
2022-09-03T10:27:23.514Z,21.77
2022-09-03T10:29:52.710Z,21.68
2022-09-03T10:32:48.320Z,22.07
2022-09-03T10:35:23.668Z,22.24
2022-09-03T10:38:00.370Z,22.38
2022-09-03T10:40:34.999Z,22.50
2022-09-03T10:43:38.444Z,22.61
2022-09-03T10:46:11.909Z,22.58
2022-09-03T10:48:50.272Z,22.67
2022-09-03T10:51:19.967Z,22.66
2022-09-03T10:54:02.094Z,22.75
2022-09-03T10:56:35.568Z,22.90
2022-09-03T10:59:19.784Z,22.83
2022-09-03T11:02:01.232Z,23.20
2022-09-03T11:04:37.785Z,23.63
2022-09-03T11:07:08.873Z,23.75
2022-09-03T11:09:38.666Z,24.02
2022-09-03T11:12:09.932Z,24.22
2022-09-03T11:14:40.386Z,24.36
2022-09-03T11:17:11.904Z,24.57
2022-09-03T11:19:47.846Z,24.78
2022-09-03T11:22:15.359Z,24.88
2022-09-03T11:24:54.221Z,24.98
2022-09-03T11:27:32.669Z,24.90
2022-09-03T11:30:05.269Z,24.98
2022-09-03T11:32:43.582Z,25.00
2022-09-03T11:35:15.619Z,25.08
2022-09-03T11:37:53.191Z,25.17
2022-09-03T11:40:20.083Z,25.12
2022-09-03T11:42:46.887Z,25.12
2022-09-03T11:45:22.854Z,25.17
2022-09-03T11:47:50.583Z,25.11
2022-09-03T11:50:21.783Z,25.11
2022-09-03T11:52:50.518Z,24.79
2022-09-03T11:55:37.571Z,24.69
2022-09-03T11:58:16.841Z,24.68
2022-09-03T12:00:44.849Z,24.62
2022-09-03T12:03:14.355Z,24.45
2022-09-03T12:05:51.607Z,24.45
2022-09-03T12:09:00.793Z,24.66
2022-09-03T12:11:41.020Z,24.58
2022-09-03T12:14:19.023Z,24.64
2022-09-03T12:17:13.471Z,24.52
2022-09-03T12:19:45.616Z,24.57
2022-09-03T12:22:16.237Z,24.20
2022-09-03T12:24:43.261Z,24.86
2022-09-03T12:27:13.233Z,24.99
2022-09-03T12:29:51.858Z,25.14
2022-09-03T12:32:19.793Z,25.22
2022-09-03T12:34:49.073Z,25.31
2022-09-03T12:38:04.543Z,25.43
2022-09-03T12:40:17.190Z,25.62
2022-09-03T12:42:43.849Z,25.72
2022-09-03T12:45:10.954Z,25.81
2022-09-03T12:47:40.770Z,25.86
2022-09-03T12:50:09.251Z,25.99
2022-09-03T12:52:39.953Z,26.15
2022-09-03T12:55:13.579Z,26.18
2022-09-03T12:57:43.727Z,26.21
2022-09-03T13:00:15.015Z,26.36
2022-09-03T13:02:50.958Z,26.27
2022-09-03T13:05:21.869Z,26.46
2022-09-03T13:07:52.593Z,26.57
2022-09-03T13:10:26.724Z,26.59
2022-09-03T13:12:58.850Z,26.60
2022-09-03T13:15:26.138Z,26.68
2022-09-03T13:18:08.379Z,26.61
2022-09-03T13:20:44.018Z,26.65
2022-09-03T13:23:26.915Z,26.75
2022-09-03T13:26:06.226Z,26.85
2022-09-03T13:28:46.423Z,26.95
2022-09-03T13:31:26.614Z,27.01
2022-09-03T13:33:59.532Z,27.13
2022-09-03T13:36:30.862Z,27.01
2022-09-03T13:39:00.685Z,26.88
2022-09-03T13:41:36.622Z,26.95
2022-09-03T13:44:09.609Z,27.18
2022-09-03T13:46:43.159Z,27.14
2022-09-03T13:49:24.324Z,27.10
2022-09-03T13:51:53.230Z,26.83
2022-09-03T13:54:47.610Z,26.65
2022-09-03T13:57:27.579Z,26.68
2022-09-03T13:59:58.987Z,26.64
2022-09-03T14:02:33.458Z,26.96
2022-09-03T14:05:06.790Z,27.10
2022-09-03T14:07:46.021Z,27.37
2022-09-03T14:10:22.632Z,27.53
2022-09-03T14:13:01.737Z,27.32
2022-09-03T14:15:34.943Z,27.59
2022-09-03T14:18:12.278Z,27.49
2022-09-03T14:20:46.130Z,27.48
2022-09-03T14:23:27.695Z,27.51
2022-09-03T14:25:55.021Z,27.60
2022-09-03T14:28:30.797Z,27.82
2022-09-03T14:31:07.770Z,27.96
2022-09-03T14:33:43.927Z,27.99
2022-09-03T14:36:21.164Z,28.23
2022-09-03T14:39:08.850Z,28.29
2022-09-03T14:41:54.719Z,28.28
2022-09-03T14:44:37.617Z,28.39
2022-09-03T14:47:23.149Z,28.65
2022-09-03T14:50:03.812Z,28.67
2022-09-03T14:52:53.279Z,28.83
2022-09-03T14:55:31.146Z,28.72
2022-09-03T14:58:27.755Z,28.70
2022-09-03T15:01:00.959Z,28.64
2022-09-03T15:03:57.818Z,28.53
2022-09-03T15:06:37.243Z,28.37
2022-09-03T15:09:32.265Z,28.41
2022-09-03T15:12:08.773Z,28.53
2022-09-03T15:14:42.330Z,28.70
2022-09-03T15:17:28.568Z,28.81
2022-09-03T15:20:09.326Z,28.82
2022-09-03T15:22:46.760Z,28.57
2022-09-03T15:25:26.827Z,28.11
2022-09-03T15:28:09.337Z,27.75
2022-09-03T15:30:45.367Z,27.53
2022-09-03T15:33:23.057Z,27.25
2022-09-03T15:36:11.681Z,27.03
2022-09-03T15:38:45.444Z,26.74
2022-09-03T15:41:29.701Z,26.73
2022-09-03T15:44:01.433Z,26.49
2022-09-03T15:46:37.750Z,26.32
2022-09-03T15:49:16.799Z,26.11
2022-09-03T15:51:53.983Z,26.00
2022-09-03T15:54:30.650Z,25.82
2022-09-03T15:57:05.548Z,25.67
2022-09-03T15:59:39.925Z,25.57
2022-09-03T16:02:12.387Z,25.55
2022-09-03T16:05:01.550Z,25.42
2022-09-03T16:07:41.592Z,25.34
2022-09-03T16:10:28.236Z,25.30
2022-09-03T16:13:06.146Z,25.20
2022-09-03T16:15:38.175Z,24.91
2022-09-03T16:18:09.353Z,24.68
2022-09-03T16:20:41.323Z,24.61
2022-09-03T16:23:12.833Z,24.33
2022-09-03T16:25:48.519Z,23.98
2022-09-03T16:28:24.642Z,23.43
2022-09-03T16:31:04.971Z,23.16
2022-09-03T16:33:41.021Z,22.88
2022-09-03T16:36:25.067Z,22.87
2022-09-03T16:39:00.635Z,22.74
2022-09-03T16:41:33.602Z,22.80
2022-09-03T16:44:11.730Z,22.60
2022-09-03T16:46:44.126Z,22.58
2022-09-03T16:49:38.369Z,22.42
2022-09-03T16:52:16.266Z,22.22
2022-09-03T16:55:06.869Z,22.12
2022-09-03T16:57:45.606Z,22.08
2022-09-03T17:00:15.116Z,21.94
2022-09-03T17:03:04.237Z,21.95
2022-09-03T17:06:08.101Z,21.98
2022-09-03T17:08:45.923Z,21.78
2022-09-03T17:11:26.227Z,21.83
2022-09-03T17:14:06.988Z,21.70
2022-09-03T17:16:50.998Z,21.60
2022-09-03T17:19:29.390Z,21.67
2022-09-03T17:22:16.018Z,21.57
2022-09-03T17:24:44.723Z,21.38
2022-09-03T17:27:26.792Z,21.51
2022-09-03T17:30:07.852Z,21.45
2022-09-03T17:32:51.250Z,20.89
2022-09-03T17:35:37.320Z,21.30
2022-09-03T17:38:17.899Z,21.21
2022-09-03T17:40:57.035Z,21.08
2022-09-03T17:43:38.649Z,20.98
2022-09-03T17:46:18.900Z,20.77
2022-09-03T17:48:50.977Z,20.84
2022-09-03T17:51:29.810Z,20.78
2022-09-03T17:54:05.449Z,20.39
2022-09-03T17:56:42.433Z,20.64
2022-09-03T17:59:16.667Z,20.66
2022-09-03T18:01:50.836Z,20.46
2022-09-03T18:04:34.128Z,20.70
2022-09-03T18:07:10.875Z,20.31
2022-09-03T18:09:42.635Z,20.53
2022-09-03T18:12:14.423Z,20.50
2022-09-03T18:14:48.978Z,20.45
2022-09-03T18:17:25.194Z,20.43
2022-09-03T18:20:00.841Z,20.42
2022-09-03T18:22:37.648Z,20.45
2022-09-03T18:25:07.655Z,20.31
2022-09-03T18:27:39.370Z,20.35
2022-09-03T18:30:08.582Z,20.23
2022-09-03T18:32:35.140Z,20.29
2022-09-03T18:35:06.804Z,19.90
2022-09-03T18:37:33.417Z,20.05
2022-09-03T18:40:00.038Z,20.13
2022-09-03T18:42:35.616Z,20.12
2022-09-03T18:45:24.341Z,20.11
2022-09-03T18:48:05.945Z,20.05
2022-09-03T18:50:44.879Z,19.96
2022-09-03T18:53:18.279Z,19.83
2022-09-03T18:55:57.176Z,19.88
2022-09-03T18:58:31.851Z,19.82
2022-09-03T19:01:07.908Z,19.74
2022-09-03T19:03:52.507Z,19.66
2022-09-03T19:06:34.610Z,19.60
2022-09-03T19:09:09.693Z,19.54
2022-09-03T19:11:55.539Z,19.47
2022-09-03T19:14:31.215Z,19.19
2022-09-03T19:17:06.722Z,19.10
2022-09-03T19:19:44.049Z,19.27
2022-09-03T19:22:15.822Z,19.18
2022-09-03T19:24:42.534Z,18.97
2022-09-03T19:27:49.984Z,18.85
2022-09-03T19:30:10.421Z,18.97
2022-09-03T19:32:46.476Z,18.87
2022-09-03T19:35:17.549Z,18.84
2022-09-03T19:37:59.282Z,18.77
2022-09-03T19:40:48.549Z,18.73
2022-09-03T19:43:25.255Z,18.62
2022-09-03T19:46:04.534Z,18.49
2022-09-03T19:48:44.437Z,18.31
2022-09-03T19:51:16.006Z,18.37
2022-09-03T19:53:44.613Z,18.26
2022-09-03T19:56:17.922Z,18.18
2022-09-03T19:58:49.364Z,18.13
2022-09-03T20:01:17.700Z,18.07
2022-09-03T20:03:44.311Z,17.86
2022-09-03T20:06:12.570Z,17.77
2022-09-03T20:08:39.107Z,17.85
2022-09-03T20:11:12.150Z,17.80
2022-09-03T20:13:39.729Z,17.66
2022-09-03T20:16:14.591Z,17.71
2022-09-03T20:18:52.114Z,17.66
2022-09-03T20:21:25.167Z,17.64
2022-09-03T20:24:00.168Z,17.60
2022-09-03T20:26:38.427Z,17.53
2022-09-03T20:29:23.080Z,17.47
2022-09-03T20:31:59.971Z,17.33
2022-09-03T20:34:36.173Z,17.30
2022-09-03T20:37:15.255Z,17.27
2022-09-03T20:39:52.934Z,17.05
2022-09-03T20:42:44.855Z,17.08
2022-09-03T20:45:18.008Z,16.97
2022-09-03T20:48:02.286Z,16.89
2022-09-03T20:50:39.536Z,16.78
2022-09-03T20:53:18.087Z,16.79
2022-09-03T20:55:49.807Z,16.69
2022-09-03T20:58:26.789Z,16.61
2022-09-03T21:01:01.954Z,16.62
2022-09-03T21:03:33.978Z,16.56
2022-09-03T21:06:15.926Z,16.57
2022-09-03T21:09:00.726Z,16.53
2022-09-03T21:11:37.416Z,16.49
2022-09-03T21:14:18.843Z,16.44
2022-09-03T21:16:56.726Z,16.37
2022-09-03T21:19:38.351Z,16.38
2022-09-03T21:22:14.052Z,16.36
2022-09-03T21:24:49.126Z,16.28
2022-09-03T21:27:19.865Z,16.18
2022-09-03T21:29:57.104Z,16.12
2022-09-03T21:32:33.293Z,16.04
2022-09-03T21:35:06.233Z,16.02
2022-09-03T21:37:35.578Z,15.97
2022-09-03T21:40:07.983Z,15.83
2022-09-03T21:42:38.786Z,15.95
2022-09-03T21:45:14.107Z,15.92
2022-09-03T21:47:48.114Z,15.82
2022-09-03T21:50:18.634Z,15.71
2022-09-03T21:52:52.470Z,15.85
2022-09-03T21:55:22.762Z,15.84
2022-09-03T21:58:04.401Z,15.80
2022-09-03T22:00:32.225Z,15.73
2022-09-03T22:02:59.378Z,15.70
2022-09-03T22:05:32.976Z,15.69
2022-09-03T22:08:09.729Z,15.71
2022-09-03T22:10:45.456Z,15.67
2022-09-03T22:13:20.430Z,15.66
2022-09-03T22:15:50.349Z,15.60
2022-09-03T22:18:21.576Z,15.56
2022-09-03T22:20:48.378Z,15.51
2022-09-03T22:23:20.355Z,15.35
2022-09-03T22:25:52.521Z,15.31
2022-09-03T22:28:26.891Z,15.05
2022-09-03T22:31:01.395Z,15.40
2022-09-03T22:33:35.665Z,15.43
2022-09-03T22:36:11.633Z,15.41
2022-09-03T22:38:58.817Z,15.24
2022-09-03T22:41:51.007Z,15.27
2022-09-03T22:44:33.114Z,15.23
2022-09-03T22:47:14.873Z,15.01
2022-09-03T22:49:50.701Z,14.70
2022-09-03T22:52:32.210Z,15.16
2022-09-03T22:55:14.170Z,15.16
2022-09-03T22:57:51.160Z,15.00
2022-09-03T23:00:18.318Z,15.09
2022-09-03T23:02:50.155Z,15.09
2022-09-03T23:05:30.022Z,15.06
2022-09-03T23:08:02.735Z,14.87
2022-09-03T23:10:33.372Z,14.91
2022-09-03T23:13:07.762Z,14.90
2022-09-03T23:15:38.650Z,14.93
2022-09-03T23:18:11.894Z,14.90
2022-09-03T23:20:44.664Z,14.87
2022-09-03T23:23:17.782Z,14.79
2022-09-03T23:25:49.449Z,14.81
2022-09-03T23:28:24.069Z,14.82
2022-09-03T23:30:51.019Z,14.78
2022-09-03T23:33:18.907Z,14.75
2022-09-03T23:35:52.997Z,14.64
2022-09-03T23:38:26.972Z,14.69
2022-09-03T23:40:57.203Z,14.64
2022-09-03T23:43:54.106Z,14.61
2022-09-03T23:46:26.906Z,14.57
2022-09-03T23:49:17.098Z,14.55
2022-09-03T23:52:00.838Z,14.53
2022-09-03T23:54:37.580Z,14.55
2022-09-03T23:57:11.928Z,14.49
